Karlsruhe, Germany

3:12 AM CEST on July 02, 2015 (GMT +0200)
Karlsruhe | | Change Station
CLOSE
Current Station
Personal Weather Station
Location: Karlsruhe, Baden-Wuerttemberg
Elevation: 374 ft
Nearby Weather Stations

Elev 374 ft 49.01 °N, 8.36 °E | Updated 10 minutes ago

Clear
Clear
75.6 °F
Feels Like 78 °F
N
0.0
Wind Variable Wind from SE
Gusts 0.0 mph

Today
High -- | Low -- °F
--% Chance of Precip.
Yesterday
High -- | Low -- °F
Precip. -- in
5:26 AM 9:34 PM
Full, 100% visible
Pressure 30.06 in
Visibility 6.2 miles
Clouds Clear
Heat Index 78 °F
Dew Point 62 °F
Humidity 62%
Rainfall 0.00 in
Snow Depth Not available.
UV 0.0 out of 12
Pollen Not available.
Air Quality Not available.
Flu Activity Not available.
METAR ETAR 020058Z AUTO 00000KT 9999 CLR 18/16 A3009 RMK AO2 SLP180 T01790157 $

More Conditions Fewer Conditions

Pressure 30.06 in
Visibility 6.2 miles
Clouds Clear
Heat Index 78 °F
Dew Point 62 °F
Humidity 62%
Rainfall 0.00 in
Snow Depth Not available.
UV 0.0 out of 12
Pollen Not available.
Air Quality Not available.
Flu Activity Not available.
METAR ETAR 020058Z AUTO 00000KT 9999 CLR 18/16 A3009 RMK AO2 SLP180 T01790157 $

More Conditions Fewer Conditions

10-Day Weather Forecast

×

Almanac

Astronomy

Jul. 02, 2015 Rise Set
Actual Time
Civil Twilight
Nautical Twilight
Astronomical Twilight
Moon
Length of Visible Light
Length of Day
Tomorrow will be .
, % of the Moon is Illuminated

Today's Extremes

Country Highs Country Lows

Community

WunderPhotos

Upload Photos

1,834,365 photos uploaded!

WunderBlogs® & News

Nearby

Air Quality

  Air Quality AQ Index Pollutant
Not available.

Snow Depth

Station Depth Elevation

Earthquake Activity

City Distance Mag. Time & Date
Minimum magnitude displayed is 2.5.

Coastal Water Temperatures

Place Temperature

Stations

Nearby Weather Stations

Station Location Temp. Windchill Dew Point Humidity Wind Precip. Elev Updated Type